createdAt,value
2022-10-31T00:01:18.172Z,99.90
2022-10-31T00:03:45.093Z,99.90
2022-10-31T00:06:12.061Z,99.90
2022-10-31T00:08:39.212Z,99.90
2022-10-31T00:11:10.448Z,99.90
2022-10-31T00:13:37.289Z,99.90
2022-10-31T00:16:04.352Z,99.90
2022-10-31T00:18:31.254Z,99.90
2022-10-31T00:21:05.021Z,99.90
2022-10-31T00:23:32.311Z,99.90
2022-10-31T00:26:04.201Z,99.90
2022-10-31T00:28:31.616Z,99.90
2022-10-31T00:31:02.475Z,99.90
2022-10-31T00:33:29.801Z,99.90
2022-10-31T00:35:57.138Z,99.90
2022-10-31T00:38:24.093Z,99.90
2022-10-31T00:40:51.072Z,99.90
2022-10-31T00:43:17.995Z,99.90
2022-10-31T00:45:45.105Z,99.90
2022-10-31T00:48:12.309Z,99.90
2022-10-31T00:50:39.909Z,99.90
2022-10-31T00:53:07.229Z,99.90
2022-10-31T00:55:34.401Z,99.90
2022-10-31T00:58:01.881Z,99.90
2022-10-31T01:00:29.158Z,99.90
2022-10-31T01:02:56.857Z,99.90
2022-10-31T01:05:23.879Z,99.90
2022-10-31T01:07:50.931Z,99.90
2022-10-31T01:10:19.017Z,99.90
2022-10-31T01:12:47.287Z,99.90
2022-10-31T01:15:18.948Z,99.90
2022-10-31T01:17:45.938Z,99.90
2022-10-31T01:20:14.945Z,99.90
2022-10-31T01:22:41.910Z,99.90
2022-10-31T01:25:10.043Z,99.90
2022-10-31T01:27:37.277Z,99.90
2022-10-31T01:30:07.441Z,99.90
2022-10-31T01:32:34.288Z,99.90
2022-10-31T01:35:01.390Z,99.90
2022-10-31T01:37:28.622Z,99.90
2022-10-31T01:39:55.452Z,99.90
2022-10-31T01:42:23.754Z,99.90
2022-10-31T01:44:55.586Z,99.90
2022-10-31T01:47:38.427Z,99.90
2022-10-31T01:50:12.156Z,99.90
2022-10-31T01:52:46.759Z,99.90
2022-10-31T01:55:29.992Z,99.90
2022-10-31T01:58:03.038Z,99.90
2022-10-31T02:00:31.324Z,99.90
2022-10-31T02:02:58.572Z,99.90
2022-10-31T02:05:28.761Z,99.90
2022-10-31T02:08:01.707Z,99.90
2022-10-31T02:10:32.456Z,99.90
2022-10-31T02:13:02.546Z,99.90
2022-10-31T02:15:31.842Z,99.90
2022-10-31T02:17:59.463Z,99.90
2022-10-31T02:20:54.995Z,99.90
2022-10-31T02:23:45.148Z,99.90
2022-10-31T02:26:24.045Z,99.90
2022-10-31T02:29:09.039Z,99.90
2022-10-31T02:31:38.701Z,99.90
2022-10-31T02:34:23.997Z,99.90
2022-10-31T02:37:02.682Z,99.90
2022-10-31T02:39:45.705Z,99.90
2022-10-31T02:42:32.120Z,99.90
2022-10-31T02:45:25.319Z,99.90
2022-10-31T02:47:56.104Z,99.90
2022-10-31T02:50:28.242Z,99.90
2022-10-31T02:52:55.208Z,99.90
2022-10-31T02:55:27.974Z,99.90
2022-10-31T02:58:10.536Z,99.90
2022-10-31T03:00:53.041Z,99.90
2022-10-31T03:03:27.576Z,99.90
2022-10-31T03:06:21.533Z,99.90
2022-10-31T03:09:12.398Z,99.90
2022-10-31T03:11:58.707Z,99.90
2022-10-31T03:14:39.803Z,99.90
2022-10-31T03:17:12.345Z,99.90
2022-10-31T03:19:44.176Z,99.90
2022-10-31T03:22:18.759Z,99.90
2022-10-31T03:24:47.539Z,99.90
2022-10-31T03:27:18.169Z,99.90
2022-10-31T03:29:46.158Z,99.90
2022-10-31T03:32:23.457Z,99.90
2022-10-31T03:34:54.373Z,99.90
2022-10-31T03:37:23.873Z,99.90
2022-10-31T03:39:51.140Z,99.90
2022-10-31T03:42:31.481Z,99.90
2022-10-31T03:45:07.484Z,99.90
2022-10-31T03:47:37.034Z,99.90
2022-10-31T03:50:05.750Z,99.90
2022-10-31T03:52:58.825Z,99.90
2022-10-31T03:55:32.143Z,99.90
2022-10-31T03:58:27.127Z,99.90
2022-10-31T04:00:58.471Z,99.90
2022-10-31T04:03:29.713Z,99.90
2022-10-31T04:06:02.972Z,99.90
2022-10-31T04:08:33.881Z,99.90
2022-10-31T04:11:03.593Z,99.90
2022-10-31T04:13:34.825Z,99.90
2022-10-31T04:16:12.638Z,99.90
2022-10-31T04:18:43.173Z,99.90
2022-10-31T04:21:12.477Z,99.90
2022-10-31T04:23:39.303Z,99.90
2022-10-31T04:26:16.642Z,99.90
2022-10-31T04:28:44.644Z,99.90
2022-10-31T04:31:13.337Z,99.90
2022-10-31T04:33:41.200Z,99.90
2022-10-31T04:36:08.412Z,99.90
2022-10-31T04:38:35.366Z,99.90
2022-10-31T04:41:06.118Z,99.90
2022-10-31T04:44:02.192Z,99.90
2022-10-31T04:46:29.249Z,99.90
2022-10-31T04:48:58.074Z,99.90
2022-10-31T04:51:25.094Z,99.90
2022-10-31T04:53:52.704Z,99.90
2022-10-31T04:56:39.983Z,99.90
2022-10-31T04:59:14.052Z,99.90
2022-10-31T05:01:54.467Z,99.90
2022-10-31T05:04:28.661Z,99.90
2022-10-31T05:06:55.552Z,99.90
2022-10-31T05:09:22.477Z,99.90
2022-10-31T05:11:49.269Z,99.90
2022-10-31T05:14:32.960Z,99.90
2022-10-31T05:17:18.360Z,99.90
2022-10-31T05:20:05.644Z,99.90
2022-10-31T05:23:03.806Z,99.90
2022-10-31T05:25:31.090Z,99.90
2022-10-31T05:27:58.982Z,99.90
2022-10-31T05:30:29.368Z,99.90
2022-10-31T05:32:56.663Z,99.90
2022-10-31T05:35:55.861Z,99.90
2022-10-31T05:38:45.532Z,99.90
2022-10-31T05:41:20.560Z,99.90
2022-10-31T05:43:48.215Z,99.90
2022-10-31T05:46:17.463Z,99.90
2022-10-31T05:49:07.069Z,99.90
2022-10-31T05:51:53.156Z,99.90
2022-10-31T05:54:24.820Z,99.90
2022-10-31T05:56:51.763Z,99.90
2022-10-31T05:59:18.838Z,99.90
2022-10-31T06:01:45.824Z,99.90
2022-10-31T06:04:32.120Z,99.90
2022-10-31T06:06:59.391Z,99.90
2022-10-31T06:09:26.413Z,99.90
2022-10-31T06:11:53.252Z,99.90
2022-10-31T06:14:23.007Z,99.90
2022-10-31T06:16:57.794Z,99.90
2022-10-31T06:19:53.548Z,99.90
2022-10-31T06:22:24.773Z,99.90
2022-10-31T06:24:52.313Z,99.90
2022-10-31T06:27:41.421Z,99.90
2022-10-31T06:30:14.114Z,99.90
2022-10-31T06:32:41.095Z,99.90
2022-10-31T06:35:09.936Z,99.90
2022-10-31T06:37:37.198Z,99.90
2022-10-31T06:40:16.821Z,99.90
2022-10-31T06:43:06.509Z,99.90
2022-10-31T06:45:33.475Z,99.90
2022-10-31T06:48:21.717Z,99.90
2022-10-31T06:51:16.293Z,99.90
2022-10-31T06:53:43.221Z,99.90
2022-10-31T06:56:12.124Z,99.90
2022-10-31T06:58:47.324Z,99.90
2022-10-31T07:01:14.645Z,99.90
2022-10-31T07:03:41.697Z,99.90
2022-10-31T07:06:08.640Z,99.90
2022-10-31T07:08:35.527Z,99.90
2022-10-31T07:11:02.489Z,99.90
2022-10-31T07:13:30.602Z,99.90
2022-10-31T07:16:07.651Z,99.90
2022-10-31T07:18:37.037Z,99.90
2022-10-31T07:21:04.568Z,99.90
2022-10-31T07:23:32.049Z,99.90
2022-10-31T07:26:37.154Z,99.90
2022-10-31T07:29:04.020Z,99.90
2022-10-31T07:31:30.858Z,99.90
2022-10-31T07:34:04.007Z,99.90
2022-10-31T07:36:46.029Z,99.90
2022-10-31T07:39:13.956Z,99.90
2022-10-31T07:41:41.578Z,99.90
2022-10-31T07:44:09.963Z,99.90
2022-10-31T07:46:55.429Z,99.90
2022-10-31T07:49:40.908Z,99.90
2022-10-31T07:52:26.574Z,99.90
2022-10-31T07:55:12.710Z,99.90
2022-10-31T07:57:39.629Z,99.90
2022-10-31T08:00:09.658Z,99.90
2022-10-31T08:02:41.910Z,99.90
2022-10-31T08:05:47.313Z,99.90
2022-10-31T08:08:32.210Z,99.90
2022-10-31T08:11:02.453Z,99.90
2022-10-31T08:13:30.490Z,99.90
2022-10-31T08:16:04.424Z,99.90
2022-10-31T08:18:33.724Z,99.90
2022-10-31T08:21:00.656Z,99.90
2022-10-31T08:23:27.486Z,99.90
2022-10-31T08:25:55.512Z,99.90
2022-10-31T08:28:23.302Z,99.90
2022-10-31T08:30:51.738Z,99.90
2022-10-31T08:33:37.417Z,99.90
2022-10-31T08:36:20.498Z,99.90
2022-10-31T08:39:06.004Z,99.90
2022-10-31T08:41:32.966Z,99.90
2022-10-31T08:44:00.957Z,99.90
2022-10-31T08:46:27.897Z,99.90
2022-10-31T08:48:54.813Z,99.90
2022-10-31T08:51:21.694Z,99.90
2022-10-31T08:53:52.424Z,99.90
2022-10-31T08:56:57.850Z,99.90
2022-10-31T08:59:35.545Z,99.90
2022-10-31T09:02:20.932Z,99.90
2022-10-31T09:04:50.030Z,99.90
2022-10-31T09:07:21.530Z,99.90
2022-10-31T09:09:49.419Z,99.90
2022-10-31T09:12:17.981Z,99.90
2022-10-31T09:15:07.932Z,99.90
2022-10-31T09:17:40.200Z,99.90
2022-10-31T09:20:30.368Z,99.90
2022-10-31T09:23:13.041Z,99.90
2022-10-31T09:25:41.782Z,99.90
2022-10-31T09:28:29.176Z,99.90
2022-10-31T09:31:00.685Z,99.90
2022-10-31T09:33:59.992Z,99.90
2022-10-31T09:36:36.023Z,99.90
2022-10-31T09:39:04.686Z,99.90
2022-10-31T09:41:57.918Z,99.90
2022-10-31T09:44:38.055Z,99.90
2022-10-31T09:47:43.445Z,99.90
2022-10-31T09:50:37.959Z,99.90
2022-10-31T09:54:02.036Z,99.90
2022-10-31T09:56:33.023Z,99.90
2022-10-31T09:59:03.213Z,99.90
2022-10-31T10:02:02.618Z,99.90
2022-10-31T10:04:45.510Z,99.90
2022-10-31T10:07:49.311Z,99.90
2022-10-31T10:10:46.796Z,99.90
2022-10-31T10:13:58.798Z,99.90
2022-10-31T10:16:47.041Z,99.90
2022-10-31T10:19:39.400Z,99.90
2022-10-31T10:22:16.792Z,99.90
2022-10-31T10:25:01.756Z,99.90
2022-10-31T10:28:05.711Z,99.90
2022-10-31T10:30:42.936Z,99.90
2022-10-31T10:33:15.499Z,99.90
2022-10-31T10:35:49.121Z,99.90
2022-10-31T10:38:27.820Z,99.90
2022-10-31T10:40:55.468Z,99.30
2022-10-31T10:43:32.165Z,99.40
2022-10-31T10:46:39.124Z,99.30
2022-10-31T10:49:05.876Z,99.60
2022-10-31T10:54:41.371Z,99.00
2022-10-31T10:57:19.195Z,99.80
2022-10-31T10:59:47.407Z,98.50
2022-10-31T11:02:18.462Z,98.90
2022-10-31T11:04:50.481Z,98.00
2022-10-31T11:07:17.402Z,98.80
2022-10-31T11:09:44.298Z,99.60
2022-10-31T11:12:18.516Z,99.50
2022-10-31T11:15:00.497Z,98.60
2022-10-31T11:17:27.406Z,98.40
2022-10-31T11:20:21.563Z,98.00
2022-10-31T11:22:49.484Z,98.40
2022-10-31T11:25:24.620Z,98.80
2022-10-31T11:28:06.927Z,98.50
2022-10-31T11:30:44.297Z,98.60
2022-10-31T11:33:31.277Z,99.00
2022-10-31T11:35:59.379Z,98.30
2022-10-31T11:38:36.484Z,97.80
2022-10-31T11:41:34.336Z,97.10
2022-10-31T11:44:14.381Z,97.80
2022-10-31T11:46:54.371Z,97.60
2022-10-31T11:49:33.252Z,97.30
2022-10-31T11:52:07.097Z,96.60
2022-10-31T11:55:01.953Z,96.00
2022-10-31T11:57:34.146Z,96.40
2022-10-31T12:00:07.005Z,96.60
2022-10-31T12:02:39.662Z,96.60
2022-10-31T12:05:19.570Z,96.30
2022-10-31T12:07:46.692Z,95.90
2022-10-31T12:10:14.677Z,95.90
2022-10-31T12:12:51.181Z,95.70
2022-10-31T12:15:34.569Z,95.80
2022-10-31T12:18:23.318Z,95.80
2022-10-31T12:20:50.207Z,95.50
2022-10-31T12:23:24.013Z,94.90
2022-10-31T12:26:03.804Z,95.70
2022-10-31T12:28:57.567Z,95.30
2022-10-31T12:31:48.315Z,94.80
2022-10-31T12:34:36.349Z,94.90
2022-10-31T12:37:36.986Z,94.30
2022-10-31T12:40:12.557Z,94.00
2022-10-31T12:42:48.530Z,93.90
2022-10-31T12:46:14.105Z,94.20
2022-10-31T12:48:53.984Z,94.50
2022-10-31T12:51:45.006Z,94.00
2022-10-31T12:54:33.499Z,94.40
2022-10-31T12:57:41.705Z,93.50
2022-10-31T13:00:17.565Z,93.90
2022-10-31T13:02:54.110Z,93.40
2022-10-31T13:05:21.339Z,93.50
2022-10-31T13:08:18.306Z,93.70
2022-10-31T13:10:53.403Z,93.40
2022-10-31T13:13:33.989Z,93.80
2022-10-31T13:16:07.081Z,93.60
2022-10-31T13:18:40.715Z,93.20
2022-10-31T13:21:28.565Z,93.40
2022-10-31T13:23:58.903Z,93.30
2022-10-31T13:26:39.440Z,93.60
2022-10-31T13:29:32.677Z,93.80
2022-10-31T13:32:05.114Z,93.70
2022-10-31T13:34:43.450Z,93.90
2022-10-31T13:37:16.102Z,93.70
2022-10-31T13:40:06.382Z,93.40
2022-10-31T13:43:07.064Z,93.70
2022-10-31T13:45:34.157Z,93.90
2022-10-31T13:48:16.063Z,93.90
2022-10-31T13:50:44.589Z,93.40
2022-10-31T13:53:19.594Z,93.80
2022-10-31T13:56:09.337Z,94.00
2022-10-31T13:58:37.139Z,94.00
2022-10-31T14:01:23.213Z,93.90
2022-10-31T14:04:14.783Z,93.60
2022-10-31T14:07:18.308Z,93.70
2022-10-31T14:10:07.489Z,94.40
2022-10-31T14:12:42.514Z,94.10
2022-10-31T14:15:25.724Z,94.10
2022-10-31T14:18:06.946Z,93.50
2022-10-31T14:20:34.173Z,94.30
2022-10-31T14:23:34.531Z,94.30
2022-10-31T14:26:32.201Z,94.50
2022-10-31T14:29:00.604Z,94.50
2022-10-31T14:31:40.701Z,94.70
2022-10-31T14:34:32.247Z,94.60
2022-10-31T14:37:23.750Z,94.70
2022-10-31T14:40:24.097Z,94.90
2022-10-31T14:43:00.526Z,94.80
2022-10-31T14:46:12.919Z,94.90
2022-10-31T14:48:42.988Z,94.80
2022-10-31T14:51:22.399Z,94.90
2022-10-31T14:53:53.504Z,95.10
2022-10-31T14:56:28.148Z,95.00
2022-10-31T14:58:58.547Z,94.80
2022-10-31T15:01:27.798Z,95.00
2022-10-31T15:06:53.743Z,95.00
2022-10-31T15:09:31.026Z,95.00
2022-10-31T15:12:17.911Z,95.10
2022-10-31T15:14:44.845Z,95.00
2022-10-31T15:17:12.636Z,95.40
2022-10-31T15:19:39.882Z,95.50
2022-10-31T15:22:10.597Z,95.20
2022-10-31T15:24:40.470Z,95.20
2022-10-31T15:27:15.979Z,95.40
2022-10-31T15:29:51.331Z,95.20
2022-10-31T15:32:26.877Z,95.20
2022-10-31T15:34:55.297Z,95.30
2022-10-31T15:37:25.247Z,95.30
2022-10-31T15:39:52.461Z,95.20
2022-10-31T15:42:33.618Z,95.40
2022-10-31T15:45:17.084Z,95.50
2022-10-31T15:48:18.111Z,95.70
2022-10-31T15:50:55.364Z,96.10
2022-10-31T15:53:35.269Z,96.40
2022-10-31T15:56:06.908Z,96.50
2022-10-31T15:58:47.327Z,96.80
2022-10-31T16:01:23.719Z,97.00
2022-10-31T16:04:11.009Z,97.30
2022-10-31T16:06:38.376Z,97.60
2022-10-31T16:09:24.167Z,97.80
2022-10-31T16:11:52.058Z,98.00
2022-10-31T16:14:25.708Z,97.90
2022-10-31T16:16:55.751Z,97.80
2022-10-31T16:19:32.329Z,98.00
2022-10-31T16:22:13.182Z,98.20
2022-10-31T16:24:50.594Z,98.20
2022-10-31T16:27:28.068Z,98.30
2022-10-31T16:29:57.276Z,98.50
2022-10-31T16:32:36.407Z,98.70
2022-10-31T16:35:24.294Z,99.00
2022-10-31T16:37:51.365Z,99.30
2022-10-31T16:40:18.811Z,99.30
2022-10-31T16:42:46.652Z,99.40
2022-10-31T16:45:33.943Z,99.60
2022-10-31T16:48:06.916Z,99.80
2022-10-31T16:50:34.084Z,99.80
2022-10-31T16:53:13.346Z,99.90
2022-10-31T16:55:50.445Z,99.90
2022-10-31T16:58:24.562Z,99.90
2022-10-31T17:00:52.742Z,99.90
2022-10-31T17:03:19.921Z,99.90
2022-10-31T17:05:46.893Z,99.90
2022-10-31T17:08:13.765Z,99.90
2022-10-31T17:10:42.179Z,99.90
2022-10-31T17:13:15.517Z,99.90
2022-10-31T17:15:46.798Z,99.90
2022-10-31T17:18:19.604Z,99.90
2022-10-31T17:20:49.773Z,99.90
2022-10-31T17:23:17.948Z,99.90
2022-10-31T17:25:44.673Z,99.90
2022-10-31T17:28:13.923Z,99.90
2022-10-31T17:30:42.250Z,99.90
2022-10-31T17:33:15.210Z,99.90
2022-10-31T17:35:45.587Z,99.90
2022-10-31T17:38:13.036Z,99.90
2022-10-31T17:40:42.398Z,99.90
2022-10-31T17:43:10.785Z,99.90
2022-10-31T17:45:40.375Z,99.90
2022-10-31T17:48:08.130Z,99.90
2022-10-31T17:50:35.493Z,99.90
2022-10-31T17:53:03.406Z,99.90
2022-10-31T17:55:34.470Z,99.90
2022-10-31T17:58:04.688Z,99.90
2022-10-31T18:00:33.579Z,99.90
2022-10-31T18:03:03.697Z,99.90
2022-10-31T18:05:31.395Z,99.90
2022-10-31T18:08:02.538Z,99.90
2022-10-31T18:10:31.018Z,99.90
2022-10-31T18:12:58.341Z,99.90
2022-10-31T18:15:25.493Z,99.90
2022-10-31T18:17:52.316Z,99.90
2022-10-31T18:20:19.593Z,99.90
2022-10-31T18:22:47.159Z,99.90
2022-10-31T18:25:13.956Z,99.90
2022-10-31T18:27:41.052Z,99.90
2022-10-31T18:30:08.664Z,99.90
2022-10-31T18:32:36.427Z,99.90
2022-10-31T18:35:03.452Z,99.90
2022-10-31T18:37:30.421Z,99.90
2022-10-31T18:39:57.227Z,99.90
2022-10-31T18:42:24.035Z,99.90
2022-10-31T18:44:50.963Z,99.90
2022-10-31T18:47:19.222Z,99.90
2022-10-31T18:49:46.198Z,99.90
2022-10-31T18:52:13.055Z,99.90
2022-10-31T18:54:39.996Z,99.90
2022-10-31T18:57:07.019Z,99.90
2022-10-31T18:59:33.896Z,99.90
2022-10-31T19:02:00.817Z,99.90
2022-10-31T19:04:27.934Z,99.90
2022-10-31T19:06:55.581Z,99.90
2022-10-31T19:09:24.191Z,99.90
2022-10-31T19:11:51.152Z,99.90
2022-10-31T19:14:18.122Z,99.90
2022-10-31T19:16:45.009Z,99.90
2022-10-31T19:19:11.956Z,99.90
2022-10-31T19:21:38.892Z,99.90
2022-10-31T19:24:06.058Z,99.90
2022-10-31T19:26:34.862Z,99.90
2022-10-31T19:29:01.713Z,99.90
2022-10-31T19:31:29.058Z,99.90
2022-10-31T19:33:56.085Z,99.90
2022-10-31T19:36:23.864Z,99.90
2022-10-31T19:38:52.420Z,99.90
2022-10-31T19:41:20.754Z,99.90
2022-10-31T19:43:48.201Z,99.90
2022-10-31T19:46:27.765Z,99.90
2022-10-31T19:49:01.047Z,99.90
2022-10-31T19:51:28.251Z,99.90
2022-10-31T19:53:55.330Z,99.90
2022-10-31T19:56:24.704Z,99.90
2022-10-31T19:58:51.991Z,99.90
2022-10-31T20:01:21.697Z,99.90
2022-10-31T20:03:49.398Z,99.90
2022-10-31T20:06:26.791Z,99.90
2022-10-31T20:08:55.760Z,99.90
2022-10-31T20:11:24.308Z,99.90
2022-10-31T20:13:51.730Z,99.90
2022-10-31T20:16:18.844Z,99.90
2022-10-31T20:18:47.048Z,99.90
2022-10-31T20:21:17.330Z,99.90
2022-10-31T20:23:45.498Z,99.90
2022-10-31T20:26:14.874Z,99.90
2022-10-31T20:28:43.650Z,99.90
2022-10-31T20:31:14.153Z,99.90
2022-10-31T20:33:41.546Z,99.90
2022-10-31T20:36:09.535Z,99.90
2022-10-31T20:38:41.416Z,99.90
2022-10-31T20:41:10.090Z,99.90
2022-10-31T20:43:37.342Z,99.90
2022-10-31T20:46:10.687Z,99.90
2022-10-31T20:48:37.720Z,99.90
2022-10-31T20:51:07.351Z,99.90
2022-10-31T20:53:34.785Z,99.90
2022-10-31T20:56:14.050Z,99.90
2022-10-31T20:58:42.609Z,99.90
2022-10-31T21:01:14.768Z,99.90
2022-10-31T21:03:42.374Z,99.90
2022-10-31T21:06:10.410Z,99.90
2022-10-31T21:08:37.973Z,99.90
2022-10-31T21:11:11.260Z,99.90
2022-10-31T21:13:40.915Z,99.90
2022-10-31T21:16:13.242Z,99.90
2022-10-31T21:18:41.870Z,99.90
2022-10-31T21:21:18.441Z,99.90
2022-10-31T21:23:45.860Z,99.90
2022-10-31T21:26:18.377Z,99.90
2022-10-31T21:28:45.400Z,99.90
2022-10-31T21:31:14.499Z,99.90
2022-10-31T21:33:41.891Z,99.90
2022-10-31T21:36:09.075Z,99.90
2022-10-31T21:38:36.672Z,99.90
2022-10-31T21:41:12.706Z,99.90
2022-10-31T21:43:42.224Z,99.90
2022-10-31T21:46:14.615Z,99.90
2022-10-31T21:48:43.449Z,99.90
2022-10-31T21:51:12.973Z,99.90
2022-10-31T21:53:58.403Z,99.90
2022-10-31T21:56:25.871Z,99.90
2022-10-31T21:58:53.636Z,99.90
2022-10-31T22:01:21.739Z,99.90
2022-10-31T22:03:49.057Z,99.90
2022-10-31T22:06:16.659Z,99.90
2022-10-31T22:08:43.828Z,99.90
2022-10-31T22:11:15.917Z,99.90
2022-10-31T22:13:44.986Z,99.90
2022-10-31T22:16:15.205Z,99.90
2022-10-31T22:18:42.814Z,99.90
2022-10-31T22:21:11.445Z,99.90
2022-10-31T22:23:39.164Z,99.90
2022-10-31T22:26:14.511Z,99.90
2022-10-31T22:28:43.268Z,99.90
2022-10-31T22:33:46.004Z,99.90
2022-10-31T22:36:16.976Z,99.90
2022-10-31T22:38:44.629Z,99.90
2022-10-31T22:41:15.858Z,99.90
2022-10-31T22:43:42.963Z,99.90
2022-10-31T22:46:13.750Z,99.90
2022-10-31T22:48:55.775Z,99.90
2022-10-31T22:51:26.215Z,99.90
2022-10-31T22:53:56.586Z,99.90
2022-10-31T22:56:25.627Z,99.90
2022-10-31T22:58:52.883Z,99.90
2022-10-31T23:01:22.325Z,99.90
2022-10-31T23:03:50.402Z,99.90
2022-10-31T23:06:20.057Z,99.90
2022-10-31T23:08:47.991Z,99.90
2022-10-31T23:11:18.562Z,99.90
2022-10-31T23:14:06.029Z,99.90
2022-10-31T23:16:33.399Z,99.90
2022-10-31T23:19:00.315Z,99.90
2022-10-31T23:21:53.944Z,99.90
2022-10-31T23:24:25.811Z,99.90
2022-10-31T23:27:09.222Z,99.90
2022-10-31T23:29:39.204Z,99.90
2022-10-31T23:32:09.838Z,99.90
2022-10-31T23:34:36.729Z,99.90
2022-10-31T23:37:03.752Z,99.90
2022-10-31T23:39:31.169Z,99.90
2022-10-31T23:41:58.199Z,99.90
2022-10-31T23:44:25.244Z,99.90
2022-10-31T23:46:52.084Z,99.90
2022-10-31T23:49:19.010Z,99.90
2022-10-31T23:51:45.940Z,99.90
2022-10-31T23:54:13.134Z,99.90
2022-10-31T23:56:40.001Z,99.90
2022-10-31T23:59:07.445Z,99.90
